Farmington, UT (84025)

8:45 PM MDT on May 24, 2015 (GMT -0600)
KUTBOUNT14 | | Change Station
CLOSE
Current Station
Personal Weather Station
Location: Rogo's Weather Station (EW2533): Bountiful Bench, UT
Elevation: 5114 ft
Nearby Weather Stations

Elev 5114 ft 40.90 °N, 111.85 °W | Updated 33 seconds ago

Overcast
Overcast
56.3 °F
Feels Like 56.3 °F
N
5.0
Wind Variable Wind from NNW
Gusts 8.0 mph

Today
High -- | Low -- °F
--% Chance of Precip.
Yesterday
High -- | Low -- °F
Precip. -- in
6:02 AM 8:46 PM
Waxing Crescent, 44% visible
Pressure 29.92 in
Visibility 10.0 miles
Clouds Mostly Cloudy 4900 ft
Overcast 6000 ft
Dew Point 46 °F
Humidity 69%
Rainfall 0.07 in
Snow Depth Not available.
UV 0 out of 12
Pollen 5.40 out of 12
Air Quality Not available.
Flu Activity Sporadic
SPECI KHIF 250238Z AUTO 30006KT 10SM BKN049 OVC060 15/07 A2992 RMK AO2

More Conditions Fewer Conditions

Pressure 29.92 in
Visibility 10.0 miles
Clouds Mostly Cloudy 4900 ft
Overcast 6000 ft
Dew Point 46 °F
Humidity 69%
Rainfall 0.07 in
Snow Depth Not available.
UV 0 out of 12
Pollen 5.40 out of 12
Air Quality Not available.
Flu Activity Sporadic
SPECI KHIF 250238Z AUTO 30006KT 10SM BKN049 OVC060 15/07 A2992 RMK AO2

More Conditions Fewer Conditions

Nowcast | as of 8:05 PM MDT on May 24, 2015

Scattered showers and isolated thunderstorms will continue over portions of northern Utah this evening. The strongest storms at 755 PM were located along the northern Wasatch front from West Warren...to Plain City...to North Ogden. Another area of strong storms were over Promontory Point. Expect occasional cloud to ground lightning...locally heavy rain...gusty winds and small hail with the strongest storms.

×

10-Day Weather Forecast

Almanac

Astronomy

May. 24, 2015 Rise Set
Actual Time
Civil Twilight
Nautical Twilight
Astronomical Twilight
Moon
Length of Visible Light
Length of Day
Tomorrow will be .
, % of the Moon is Illuminated

Today's Extremes

State Highs State Lows

Community

WunderPhotos

Upload Photos

1,823,936 photos uploaded!

WunderBlogs® & News

Nearby

Air Quality

  Air Quality AQ Index Pollutant
Not available.

Snow Depth

Station Depth Elevation

Earthquake Activity

City Distance Mag. Time & Date
Minimum magnitude displayed is 2.5.

Coastal Water Temperatures

Place Temperature

Stations

Nearby Weather Stations

Station Location Temp. Windchill Dew Point Humidity Wind Precip. Elev Updated Type